METAR Data

Data at: 0526 UTC 28 Sep 2022

METAR for:CYZX (Greenwood (MIL), NS, CA)
Text:CYZX 280500Z 02003KT 8SM SCT015 12/12 A2992 RMK SC3 SLP132
Temperature: 12.0°C ( 54°F)
Dewpoint: 12.0°C ( 54°F) [RH = 100%]
Pressure (altimeter):29.92 inches Hg (1013.3 mb) [Sea level pressure: 1013.2 mb]
Winds:from the NNE (20 degrees) at 3 MPH (3 knots; 1.5 m/s)
Visibility: 8 sm ( 13 km)
Ceiling:at least 12,000 feet AGL
Clouds: scattered clouds at 1500 feet AGL